Terminal Aerodrome Forecast
Issued by NWS

Current Version | Previous Version | Text Only | Print | Product List | Glossary On
Versions: 1 2 3 4 5 6 7 8 9 10 11 12 13 14
885
FTUS43 KJKL 271724
TAFSJS
TAF
KSJS 271724Z 2718/2818 00000KT P6SM SKC
     FM280700 00000KT 5SM BR FEW250
     FM280900 00000KT 1SM BR FEW005
     FM281200 00000KT 4SM BR SCT010
     FM281500 VRB04KT P6SM SCT250=

USA.gov is the U.S. government's official web portal to all federal, state and local government web resources and services.